Time;durP1;ratioP1;P1;durP2;ratioP2;P2;SDS_P1;SDS_P2;PMS_P1;PMS_P2;Temp;Humidity;BMP_temperature;BMP_pressure;BME280_temperature;BME280_humidity;BME280_pressure;Samples;Min_cycle;Max_cycle;Signal;HPM_P1;HPM_P2
2023/08/10 00:00:41;;;;;;;1.48;0.90;;;;;;;19.16;67.96;64991.63;5051971;28;20186;-53
2023/08/10 00:03:06;;;;;;;1.13;1.00;;;;;;;19.19;67.93;64992.38;5052052;28;20193;-54
2023/08/10 00:05:31;;;;;;;0.75;0.63;;;;;;;19.22;67.27;64995.69;5051977;28;20641;-53
2023/08/10 00:07:57;;;;;;;1.95;0.73;;;;;;;19.32;66.25;65006.72;5051740;28;20213;-56
2023/08/10 00:10:23;;;;;;;1.27;0.70;;;;;;;19.33;67.38;65007.88;5051748;28;20376;-54
2023/08/10 00:12:49;;;;;;;0.93;0.80;;;;;;;19.39;66.60;65017.06;5051904;28;20699;-55
2023/08/10 00:15:14;;;;;;;0.90;0.90;;;;;;;19.35;67.08;65012.63;5051763;28;20193;-54
2023/08/10 00:17:40;;;;;;;1.17;0.80;;;;;;;19.37;66.08;65014.84;5052058;28;20209;-54
2023/08/10 00:20:09;;;;;;;2.63;0.70;;;;;;;19.37;66.32;65012.28;5051521;28;20204;-53
2023/08/10 00:22:36;;;;;;;1.10;0.75;;;;;;;19.33;68.31;65009.84;5051436;28;20227;-54
2023/08/10 00:25:03;;;;;;;1.38;0.82;;;;;;;19.39;67.91;65017.06;5051527;28;20193;-54
2023/08/10 00:27:29;;;;;;;0.85;0.85;;;;;;;19.56;66.86;65035.81;5051662;28;20221;-54
2023/08/10 00:29:55;;;;;;;3.88;0.88;;;;;;;19.51;66.07;65029.75;5051357;28;20201;-53
2023/08/10 00:32:21;;;;;;;1.92;1.13;;;;;;;19.48;65.86;65023.88;5051617;28;20680;-54
2023/08/10 00:34:47;;;;;;;4.18;1.10;;;;;;;19.40;66.77;65023.25;5051593;28;20204;-53
2023/08/10 00:37:14;;;;;;;2.00;1.10;;;;;;;19.43;66.32;65021.47;5051583;28;20252;-55
2023/08/10 00:39:39;;;;;;;0.90;0.90;;;;;;;19.32;66.63;65006.72;5049916;28;20200;-55
2023/08/10 00:42:05;;;;;;;2.67;0.95;;;;;;;19.25;67.73;65002.09;5051239;28;20213;-54
2023/08/10 00:44:30;;;;;;;1.52;1.05;;;;;;;19.34;67.38;65008.97;5051766;28;20193;-55
2023/08/10 00:46:56;;;;;;;1.85;0.70;;;;;;;19.40;68.16;65018.16;5051522;28;20271;-55
2023/08/10 00:49:22;;;;;;;2.33;1.15;;;;;;;19.41;68.98;65021.25;5051244;28;20212;-55
2023/08/10 00:51:47;;;;;;;1.10;1.00;;;;;;;19.26;69.24;65000.13;5051378;28;20213;-62
2023/08/10 00:54:13;;;;;;;1.95;1.13;;;;;;;19.27;68.30;65001.22;5050972;28;20259;-55
2023/08/10 00:56:39;;;;;;;1.30;0.90;;;;;;;19.21;68.45;64997.69;5051148;28;20575;-54
2023/08/10 00:59:04;;;;;;;2.47;1.08;;;;;;;19.10;69.49;64987.56;5051022;28;20515;-55
2023/08/10 01:01:30;;;;;;;0.93;0.90;;;;;;;19.05;70.24;64979.47;5051136;28;20205;-55
2023/08/10 01:03:55;;;;;;;1.23;1.05;;;;;;;18.99;71.70;64972.84;5051244;28;20197;-53
2023/08/10 01:06:38;;;;;;;3.67;1.02;;;;;;;18.88;72.65;64963.84;5050720;28;20374;-54
2023/08/10 01:09:04;;;;;;;1.05;1.00;;;;;;;19.05;71.68;64982.59;5066134;28;20240;-56
2023/08/10 01:11:51;;;;;;;1.48;0.80;;;;;;;18.89;72.92;64961.81;5049524;28;20217;-55
2023/08/10 01:14:26;;;;;;;1.15;0.98;;;;;;;18.88;71.93;64958.72;5051295;28;20200;-56
2023/08/10 01:16:55;;;;;;;1.90;0.90;;;;;;;18.95;69.88;64968.44;5051021;28;20295;-54
2023/08/10 01:19:32;;;;;;;1.10;0.90;;;;;;;18.94;71.21;64964.78;5050809;28;20181;-53
2023/08/10 01:22:37;;;;;;;2.13;1.15;;;;;;;18.84;71.18;64956.88;5050737;28;20217;-55
2023/08/10 01:25:06;;;;;;;2.75;0.90;;;;;;;18.84;70.67;64959.44;5050668;28;20243;-55
2023/08/10 01:27:33;;;;;;;1.30;1.05;;;;;;;18.83;70.54;64955.75;5050996;28;20213;-54
2023/08/10 01:30:00;;;;;;;1.77;1.20;;;;;;;18.83;70.22;64957.75;5050454;28;20213;-54
2023/08/10 01:32:30;;;;;;;1.58;1.00;;;;;;;18.74;70.51;64945.84;5050297;28;20303;-54
2023/08/10 01:34:59;;;;;;;1.60;0.93;;;;;;;18.84;69.97;64956.88;5050314;28;20244;-54
2023/08/10 01:37:26;;;;;;;2.85;1.10;;;;;;;18.75;70.58;64944.38;5050861;28;20224;-55
2023/08/10 01:39:51;;;;;;;2.72;1.13;;;;;;;18.80;70.68;64952.47;5050396;28;20220;-58
2023/08/10 01:42:17;;;;;;;0.73;0.70;;;;;;;18.83;70.17;64952.66;5050626;28;20206;-54
2023/08/10 01:44:43;;;;;;;1.63;1.00;;;;;;;18.81;70.86;64956.09;5049129;28;20288;-55
2023/08/10 01:47:26;;;;;;;0.77;0.75;;;;;;;18.92;69.61;64965.69;5050335;28;20209;-54
2023/08/10 01:49:56;;;;;;;0.95;0.90;;;;;;;18.90;69.84;64962.94;5049764;28;20296;-55
2023/08/10 01:52:30;;;;;;;1.33;1.10;;;;;;;18.73;71.71;64944.16;5048743;28;20221;-58
2023/08/10 01:54:57;;;;;;;1.10;1.00;;;;;;;18.86;71.58;64958.53;5050767;28;20224;-55
2023/08/10 01:57:23;;;;;;;2.92;1.00;;;;;;;18.81;71.70;64953.00;5050641;28;20233;-53
2023/08/10 01:59:49;;;;;;;2.42;1.10;;;;;;;18.87;70.86;64959.63;5048680;28;20229;-54
2023/08/10 02:02:14;;;;;;;1.42;1.15;;;;;;;18.80;71.03;64952.47;5050218;28;20635;-55
2023/08/10 02:04:39;;;;;;;1.55;0.90;;;;;;;18.75;71.44;64944.38;5050209;28;20202;-54
2023/08/10 02:07:05;;;;;;;1.20;0.88;;;;;;;18.82;70.29;64951.56;5050090;28;20609;-55
2023/08/10 02:09:31;;;;;;;3.67;1.02;;;;;;;18.77;70.73;64949.13;5051486;28;20224;-54
2023/08/10 02:11:57;;;;;;;1.70;1.10;;;;;;;18.69;71.67;64940.31;5061943;22;20259;-54
2023/08/10 02:14:22;;;;;;;1.20;0.88;;;;;;;18.75;71.61;64949.50;5053435;28;20212;-55
2023/08/10 02:16:48;;;;;;;1.83;1.05;;;;;;;18.73;71.35;64946.72;5053599;28;20584;-55
2023/08/10 02:19:13;;;;;;;1.38;0.95;;;;;;;18.61;72.15;64928.38;5053531;28;20216;-55
2023/08/10 02:21:39;;;;;;;1.77;1.13;;;;;;;18.54;73.33;64923.22;5053416;28;20751;-54
2023/08/10 02:24:04;;;;;;;1.73;1.10;;;;;;;18.44;73.27;64912.75;5052010;28;20196;-56
2023/08/10 02:26:30;;;;;;;1.00;0.85;;;;;;;18.40;73.34;64905.75;5053532;28;20221;-55
2023/08/10 02:28:56;;;;;;;1.13;0.98;;;;;;;18.56;73.99;64928.53;5053823;28;20201;-55
2023/08/10 02:31:23;;;;;;;0.90;0.80;;;;;;;18.42;75.28;64908.50;5053286;28;20209;-56
2023/08/10 02:33:49;;;;;;;1.38;0.95;;;;;;;18.57;73.21;64926.53;5053281;28;20335;-56
2023/08/10 02:36:14;;;;;;;1.05;0.82;;;;;;;18.58;73.25;64927.63;5053324;28;20241;-55
2023/08/10 02:38:40;;;;;;;2.45;1.02;;;;;;;18.54;73.37;64923.78;5053206;28;20197;-56
2023/08/10 02:41:05;;;;;;;0.93;0.93;;;;;;;18.58;73.54;64928.19;5053401;28;20217;-54
2023/08/10 02:43:31;;;;;;;2.28;1.23;;;;;;;18.46;74.72;64914.41;5053162;28;20632;-54
2023/08/10 02:45:56;;;;;;;1.67;0.95;;;;;;;18.43;76.61;64914.19;5053383;28;20723;-54
2023/08/10 02:48:22;;;;;;;3.25;1.15;;;;;;;18.54;77.03;64923.22;5053405;28;20201;-58
2023/08/10 02:50:48;;;;;;;1.40;1.30;;;;;;;18.54;78.97;64923.22;5052995;28;20312;-55
2023/08/10 02:53:14;;;;;;;1.10;1.10;;;;;;;18.66;81.27;64937.00;5068578;28;20280;-55
2023/08/10 02:55:39;;;;;;;1.23;1.13;;;;;;;18.69;83.50;64942.31;5053536;28;20185;-56
2023/08/10 02:58:05;;;;;;;1.75;1.00;;;;;;;18.70;86.18;64941.44;5053548;28;20197;-55
2023/08/10 03:00:31;;;;;;;3.92;1.52;;;;;;;18.65;89.84;64937.91;5052964;28;20193;-55
2023/08/10 03:02:56;;;;;;;2.15;1.27;;;;;;;18.70;92.01;64940.88;5052673;28;20651;-54
2023/08/10 03:05:22;;;;;;;1.15;1.05;;;;;;;18.70;93.30;64938.88;5053119;28;20194;-54
2023/08/10 03:07:48;;;;;;;1.88;1.40;;;;;;;18.71;94.08;64941.97;5053202;28;20210;-55
2023/08/10 03:10:14;;;;;;;2.08;1.38;;;;;;;18.76;91.53;64947.50;5051389;28;20206;-55
2023/08/10 03:12:40;;;;;;;1.65;1.17;;;;;;;18.89;90.29;64959.81;5053018;28;20221;-54
2023/08/10 03:15:09;;;;;;;2.85;1.60;;;;;;;18.89;93.58;64959.81;5053004;28;20565;-55
2023/08/10 03:17:35;;;;;;;4.95;1.85;;;;;;;18.73;97.47;64944.16;5052547;28;20293;-54
2023/08/10 03:20:00;;;;;;;4.30;1.40;;;;;;;18.50;100.00;64919.38;5050896;28;20592;-55
2023/08/10 03:22:27;;;;;;;4.13;1.73;;;;;;;18.44;100.00;64912.75;5051988;28;20666;-55
2023/08/10 03:24:53;;;;;;;2.95;1.45;;;;;;;18.43;100.00;64912.19;5053169;28;20205;-54
2023/08/10 03:27:20;;;;;;;3.53;1.60;;;;;;;18.37;100.00;64902.44;5053030;28;20690;-54
2023/08/10 03:29:45;;;;;;;3.17;1.50;;;;;;;18.57;100.00;64929.06;5052535;28;20225;-58
2023/08/10 03:32:10;;;;;;;5.78;2.00;;;;;;;18.59;100.00;64931.84;5050992;28;20224;-54
2023/08/10 03:34:36;;;;;;;1.70;1.60;;;;;;;18.58;100.00;64928.19;5052471;28;20220;-54
2023/08/10 03:37:02;;;;;;;4.05;2.25;;;;;;;18.24;100.00;64891.19;5052739;28;20784;-55
2023/08/10 03:39:28;;;;;;;2.90;1.67;;;;;;;18.12;100.00;64877.44;5052342;28;20683;-55
2023/08/10 03:41:53;;;;;;;2.95;1.83;;;;;;;18.44;100.00;64912.75;5052124;28;20213;-54
2023/08/10 03:44:19;;;;;;;2.95;2.08;;;;;;;18.30;100.00;64900.38;5052606;28;20228;-55
2023/08/10 03:46:44;;;;;;;6.70;2.28;;;;;;;18.14;100.00;64880.19;5052458;28;20305;-55
2023/08/10 03:49:10;;;;;;;5.03;1.70;;;;;;;18.02;100.00;64866.38;5052026;28;20501;-54
2023/08/10 03:51:36;;;;;;;2.47;1.90;;;;;;;18.24;100.00;64888.13;5050892;28;20217;-54
2023/08/10 03:54:01;;;;;;;2.42;1.70;;;;;;;18.04;100.00;64869.16;5052424;28;20202;-54
2023/08/10 03:56:27;;;;;;;3.38;1.88;;;;;;;17.74;100.00;64835.53;5052486;28;20213;-55
2023/08/10 03:58:52;;;;;;;2.45;1.92;;;;;;;17.62;100.00;64825.41;5051971;28;20259;-55
2023/08/10 04:01:18;;;;;;;2.22;2.00;;;;;;;17.44;100.00;64806.09;5051855;28;20244;-55
2023/08/10 04:03:43;;;;;;;5.70;2.72;;;;;;;17.41;100.00;64802.78;5051901;28;20205;-53
2023/08/10 04:06:09;;;;;;;5.93;2.40;;;;;;;17.23;100.00;64782.94;5051980;28;20210;-54
2023/08/10 04:08:34;;;;;;;4.72;2.20;;;;;;;17.10;100.00;64768.63;5051815;28;20288;-55
2023/08/10 04:10:59;;;;;;;3.88;2.03;;;;;;;17.07;100.00;64764.78;5051957;28;20213;-56
2023/08/10 04:13:26;;;;;;;7.22;2.33;;;;;;;16.94;100.00;64747.91;5052040;28;20578;-55
2023/08/10 04:15:51;;;;;;;3.92;2.42;;;;;;;16.76;100.00;64729.19;5051793;28;20212;-55
2023/08/10 04:18:16;;;;;;;3.10;2.38;;;;;;;16.95;100.00;64751.56;5051692;28;20205;-56
2023/08/10 04:20:42;;;;;;;4.68;2.58;;;;;;;17.17;100.00;64773.25;5066950;28;20208;-56
2023/08/10 04:23:07;;;;;;;4.40;2.28;;;;;;;17.26;100.00;64781.16;5051908;28;20633;-60
2023/08/10 04:25:33;;;;;;;5.65;1.90;;;;;;;17.22;100.00;64778.75;5051435;28;20284;-54
2023/08/10 04:27:59;;;;;;;7.30;2.83;;;;;;;17.27;100.00;64784.28;5051479;28;20303;-56
2023/08/10 04:30:29;;;;;;;2.20;1.95;;;;;;;17.27;100.00;64789.38;5051602;28;20623;-55
2023/08/10 04:32:57;;;;;;;6.72;3.10;;;;;;;17.39;100.00;64798.03;5050751;28;20213;-55
2023/08/10 04:35:23;;;;;;;2.47;2.20;;;;;;;17.49;100.00;64806.00;5051340;28;20190;-58
2023/08/10 04:37:50;;;;;;;4.63;2.05;;;;;;;17.65;100.00;64828.16;5051673;28;20220;-55
2023/08/10 04:40:16;;;;;;;4.28;2.83;;;;;;;18.14;100.00;64880.19;5051372;28;20284;-54
2023/08/10 04:42:41;;;;;;;3.30;2.22;;;;;;;18.28;100.00;64897.63;5051695;28;20300;-55
2023/08/10 04:45:11;;;;;;;5.50;2.25;;;;;;;18.30;100.00;64897.28;5051499;28;20204;-55
2023/08/10 04:47:37;;;;;;;4.60;2.50;;;;;;;18.19;100.00;64888.25;5051386;28;20237;-53
2023/08/10 04:50:03;;;;;;;2.40;2.20;;;;;;;18.33;100.00;64901.13;5051221;28;20216;-54
2023/08/10 04:52:29;;;;;;;4.65;2.78;;;;;;;18.46;100.00;64911.84;5049656;28;20236;-54
2023/08/10 04:54:54;;;;;;;2.70;2.15;;;;;;;18.53;100.00;64922.66;5051705;28;20224;-54
2023/08/10 04:57:20;;;;;;;3.67;2.30;;;;;;;18.52;100.00;64921.00;5051039;28;20608;-54
2023/08/10 04:59:46;;;;;;;3.03;2.25;;;;;;;18.56;100.00;64927.97;5051293;28;20651;-61
2023/08/10 05:02:13;;;;;;;5.38;2.40;;;;;;;18.54;100.00;64926.34;5050859;28;20224;-59
2023/08/10 05:04:39;;;;;;;4.78;2.50;;;;;;;18.70;100.00;64943.97;5051002;28;20189;-55
2023/08/10 05:07:04;;;;;;;5.40;2.60;;;;;;;18.66;100.00;64937.00;5051276;28;20221;-54
2023/08/10 05:09:30;;;;;;;3.28;2.10;;;;;;;18.65;100.00;64933.34;5050947;28;20205;-54
2023/08/10 05:11:55;;;;;;;4.50;2.03;;;;;;;18.54;100.00;64923.22;5050946;28;20213;-55
2023/08/10 05:14:21;;;;;;;4.55;2.40;;;;;;;18.58;100.00;64927.63;5051101;28;20197;-55
2023/08/10 05:16:46;;;;;;;2.28;1.98;;;;;;;18.54;100.00;64923.22;5050765;28;20229;-55
2023/08/10 05:19:12;;;;;;;3.58;1.98;;;;;;;18.65;100.00;64932.78;5050788;28;20212;-54
2023/08/10 05:21:37;;;;;;;4.35;2.20;;;;;;;18.49;100.00;64915.69;5050599;28;20218;-58
2023/08/10 05:24:03;;;;;;;4.32;2.45;;;;;;;18.16;100.00;64884.94;5051184;28;20197;-55
2023/08/10 05:26:28;;;;;;;3.28;2.50;;;;;;;17.87;100.00;64847.88;5065956;28;20656;-55
2023/08/10 05:28:54;;;;;;;5.05;2.47;;;;;;;17.80;100.00;64840.16;5050739;28;20228;-56
2023/08/10 05:31:20;;;;;;;4.97;2.63;;;;;;;17.77;100.00;64841.94;5057779;22;20919;-54
2023/08/10 05:33:45;;;;;;;5.03;3.05;;;;;;;18.04;100.00;64871.16;5050490;28;20656;-54
2023/08/10 05:36:11;;;;;;;8.30;3.08;;;;;;;17.95;100.00;64859.25;5050597;28;20213;-54
2023/08/10 05:38:39;;;;;;;4.80;2.80;;;;;;;18.06;100.00;64870.81;5050627;28;20202;-56
2023/08/10 05:41:05;;;;;;;6.07;3.15;;;;;;;17.94;100.00;64860.13;5050105;28;20355;-58
2023/08/10 05:43:30;;;;;;;7.97;3.03;;;;;;;17.64;100.00;64822.50;5047950;28;20729;-55
2023/08/10 05:45:55;;;;;;;3.90;1.95;;;;;;;17.27;100.00;64784.28;5048923;28;20692;-57
2023/08/10 05:48:21;;;;;;;6.88;2.70;;;;;;;17.17;100.00;64775.81;5050324;28;20636;-55
2023/08/10 05:50:47;;;;;;;4.20;2.30;;;;;;;16.98;100.00;64754.88;5048620;28;20711;-56
2023/08/10 05:53:13;;;;;;;3.75;2.38;;;;;;;16.98;100.00;64750.31;5050416;28;20197;-54
2023/08/10 05:55:39;;;;;;;4.30;2.55;;;;;;;17.15;100.00;64771.59;5050161;28;20303;-59
2023/08/10 05:58:05;;;;;;;5.60;2.97;;;;;;;17.01;100.00;64756.16;5050200;28;20237;-55
2023/08/10 06:00:31;;;;;;;5.93;2.47;;;;;;;17.44;100.00;64806.09;5050736;28;20220;-55
2023/08/10 06:02:56;;;;;;;4.30;2.20;;;;;;;17.57;100.00;64817.34;5049961;28;20221;-55
2023/08/10 06:05:22;;;;;;;4.07;2.35;;;;;;;17.43;100.00;64801.91;5050329;28;20250;-55
2023/08/10 06:07:48;;;;;;;4.68;2.60;;;;;;;17.86;100.00;64849.31;5050173;28;20680;-57
2023/08/10 06:10:18;;;;;;;6.47;2.50;;;;;;;17.49;100.00;64811.09;5048698;28;20221;-56
2023/08/10 06:12:44;;;;;;;6.50;2.58;;;;;;;17.81;100.00;64846.34;5050606;28;20219;-54
2023/08/10 06:15:10;;;;;;;5.15;2.63;;;;;;;18.27;100.00;64897.06;5050168;28;20205;-54
2023/08/10 06:17:39;;;;;;;3.53;2.42;;;;;;;18.82;100.00;64951.56;5048524;28;20206;-54
2023/08/10 06:20:13;;;;;;;5.40;2.50;;;;;;;19.16;100.00;64989.06;5050415;28;20219;-60
2023/08/10 06:22:41;;;;;;;4.63;2.67;;;;;;;19.27;100.00;65004.31;5049776;28;20209;-56
2023/08/10 06:25:08;;;;;;;3.03;2.33;;;;;;;19.45;100.00;65023.13;5048522;28;20669;-56
2023/08/10 06:27:34;;;;;;;2.95;2.03;;;;;;;19.38;100.00;65015.38;5050165;28;20193;-55
2023/08/10 06:30:01;;;;;;;3.40;2.40;;;;;;;19.42;100.00;65019.78;5049844;28;20217;-56
2023/08/10 06:32:26;;;;;;;5.30;2.60;;;;;;;19.35;100.00;65012.63;5049885;28;20706;-57
2023/08/10 06:34:54;;;;;;;6.53;2.88;;;;;;;19.23;100.00;64999.34;5050229;28;20299;-55
2023/08/10 06:37:20;;;;;;;4.60;2.83;;;;;;;18.86;100.00;64958.53;5049725;28;20252;-54
2023/08/10 06:39:49;;;;;;;3.80;2.35;;;;;;;18.37;100.00;64903.00;5048370;28;20241;-56
2023/08/10 06:42:17;;;;;;;4.65;2.55;;;;;;;18.34;100.00;64897.13;5048244;28;20221;-55
2023/08/10 06:44:43;;;;;;;4.05;2.75;;;;;;;18.54;100.00;64923.22;5049599;28;20258;-54
2023/08/10 06:47:10;;;;;;;4.32;2.85;;;;;;;18.44;100.00;64912.75;5049929;28;20331;-55
2023/08/10 06:49:36;;;;;;;2.10;1.90;;;;;;;18.41;100.00;64909.97;5049948;28;20718;-55
2023/08/10 06:52:03;;;;;;;7.90;3.05;;;;;;;18.45;100.00;64916.41;5049839;28;20267;-55
2023/08/10 06:54:29;;;;;;;4.68;2.90;;;;;;;18.39;100.00;64907.75;5049176;28;20797;-58
2023/08/10 06:56:55;;;;;;;4.57;2.67;;;;;;;18.64;100.00;64937.38;5053007;28;20213;-55
2023/08/10 06:59:21;;;;;;;6.93;2.95;;;;;;;18.63;100.00;64933.69;5052833;28;20209;-58
2023/08/10 07:01:47;;;;;;;4.07;2.45;;;;;;;18.80;100.00;64955.00;5051484;28;20213;-55
2023/08/10 07:04:12;;;;;;;6.15;2.35;;;;;;;19.20;100.00;64996.03;5052660;28;20206;-54
2023/08/10 07:06:38;;;;;;;2.30;2.10;;;;;;;19.42;100.00;65020.34;5052779;28;20201;-55
2023/08/10 07:09:04;;;;;;;3.35;2.20;;;;;;;19.91;100.00;65073.91;5051206;28;20758;-55
2023/08/10 07:11:31;;;;;;;3.53;1.95;;;;;;;19.93;100.00;65074.13;5052608;28;20267;-55
2023/08/10 07:13:57;;;;;;;2.65;1.92;;;;;;;19.94;100.00;65075.22;5052603;28;20714;-56
2023/08/10 07:16:23;;;;;;;2.38;2.10;;;;;;;20.08;100.00;65090.13;5052681;28;20201;-54
2023/08/10 07:18:49;;;;;;;2.45;2.25;;;;;;;20.09;100.00;65091.78;5053001;28;20205;-54
2023/08/10 07:21:15;;;;;;;4.05;1.95;;;;;;;19.99;100.00;65085.88;5052647;28;20204;-55
2023/08/10 07:23:40;;;;;;;2.55;2.25;;;;;;;20.03;100.00;65087.16;5052342;28;20205;-54
2023/08/10 07:26:06;;;;;;;3.70;2.00;;;;;;;20.13;100.00;65095.09;5051128;28;20202;-54
2023/08/10 07:28:39;;;;;;;3.50;2.30;;;;;;;20.25;100.00;65108.38;5052653;28;20225;-53
2023/08/10 07:31:04;;;;;;;4.28;2.30;;;;;;;20.38;100.00;65122.75;5052073;28;20222;-54
2023/08/10 07:33:30;;;;;;;3.80;2.22;;;;;;;20.65;100.00;65153.13;5067925;28;20319;-56
2023/08/10 07:35:56;;;;;;;3.05;2.55;;;;;;;20.62;100.00;65154.94;5068080;28;20639;-56
2023/08/10 07:38:22;;;;;;;3.03;2.65;;;;;;;20.68;100.00;65158.47;5051094;28;20596;-55
2023/08/10 07:40:47;;;;;;;4.32;2.42;;;;;;;20.66;100.00;65156.25;5052131;28;20202;-55
2023/08/10 07:43:13;;;;;;;4.00;2.22;;;;;;;20.70;100.00;65158.66;5052170;28;20308;-53
2023/08/10 07:45:38;;;;;;;4.90;2.40;;;;;;;20.74;100.00;65163.09;5052145;28;20213;-58
2023/08/10 07:48:05;;;;;;;2.30;2.10;;;;;;;20.38;100.00;65125.84;5052634;28;20209;-58
2023/08/10 07:50:31;;;;;;;3.83;2.10;;;;;;;20.36;100.00;65121.06;5052107;28;20301;-55
2023/08/10 07:52:57;;;;;;;3.97;2.10;;;;;;;20.14;100.00;65098.78;5050641;28;20212;-54
2023/08/10 07:55:23;;;;;;;2.30;1.85;;;;;;;20.14;100.00;65096.75;5052506;28;20197;-56
2023/08/10 07:57:49;;;;;;;3.03;2.05;;;;;;;20.13;100.00;65100.22;5052614;28;20206;-57
2023/08/10 08:00:15;;;;;;;9.43;5.65;;;;;;;20.29;100.00;65115.34;5050867;28;20675;-54
2023/08/10 08:02:41;;;;;;;2.97;2.25;;;;;;;20.36;100.00;65123.09;5051908;28;20201;-59
2023/08/10 08:05:06;;;;;;;3.15;2.28;;;;;;;20.52;100.00;65143.34;5051013;28;20275;-55
2023/08/10 08:07:39;;;;;;;4.63;2.35;;;;;;;20.54;100.00;65140.44;5051419;28;20216;-56
2023/08/10 08:10:05;;;;;;;4.28;2.13;;;;;;;20.42;100.00;65127.16;5051937;28;20268;-52
2023/08/10 08:12:32;;;;;;;7.05;2.20;;;;;;;20.33;98.32;65120.34;5051767;28;20727;-56
2023/08/10 08:14:57;;;;;;;3.25;1.73;;;;;;;19.86;100.00;65071.50;5067258;28;20209;-54
2023/08/10 08:17:23;;;;;;;8.13;3.45;;;;;;;19.91;100.00;65071.91;5052366;28;20583;-54
2023/08/10 08:19:55;;;;;;;6.50;2.35;;;;;;;20.07;100.00;65091.59;5051847;28;20300;-55
2023/08/10 08:22:22;;;;;;;3.08;2.40;;;;;;;20.08;100.00;65092.69;5052191;28;20224;-55
2023/08/10 08:24:51;;;;;;;3.90;2.22;;;;;;;20.08;100.00;65095.78;5052138;28;20205;-54
2023/08/10 08:27:18;;;;;;;3.10;2.05;;;;;;;20.30;100.00;65114.44;5051992;28;20217;-54
2023/08/10 08:29:45;;;;;;;2.92;2.30;;;;;;;20.36;100.00;65121.06;5050232;28;20224;-54
2023/08/10 08:32:10;;;;;;;3.10;2.47;;;;;;;20.49;100.00;65137.44;5051723;28;20216;-55
2023/08/10 08:34:36;;;;;;;5.70;2.40;;;;;;;20.60;100.00;65149.63;5050439;28;20583;-54
2023/08/10 08:37:02;;;;;;;3.30;2.35;;;;;;;20.75;100.00;65166.19;5051894;28;20202;-55
2023/08/10 08:39:27;;;;;;;8.93;3.05;;;;;;;20.79;95.34;65168.59;5051400;28;20655;-54
2023/08/10 08:41:56;;;;;;;4.03;2.63;;;;;;;20.69;96.21;65160.13;5051371;28;20229;-54
2023/08/10 08:44:22;;;;;;;3.45;2.78;;;;;;;20.73;97.44;65161.97;5051928;28;20783;-55
2023/08/10 08:46:48;;;;;;;2.50;2.30;;;;;;;20.82;99.48;65171.38;5051914;28;20745;-54
2023/08/10 08:49:14;;;;;;;3.25;2.65;;;;;;;20.83;94.64;65172.47;5051239;28;20209;-54
2023/08/10 08:51:40;;;;;;;6.65;2.58;;;;;;;20.69;98.02;65157.56;5051507;28;20292;-54
2023/08/10 08:54:06;;;;;;;5.90;4.65;;;;;;;20.58;95.82;65147.41;5051497;28;20207;-58
2023/08/10 08:56:31;;;;;;;5.32;4.35;;;;;;;20.89;96.01;65184.22;5051475;28;20247;-56
2023/08/10 08:58:57;;;;;;;3.50;3.17;;;;;;;21.18;93.47;65211.19;5051162;28;20209;-54
2023/08/10 09:01:24;;;;;;;6.80;3.80;;;;;;;21.25;87.78;65218.94;5051161;28;20205;-55
2023/08/10 09:03:49;;;;;;;3.15;2.90;;;;;;;21.17;87.60;65212.09;5051335;28;20201;-54
2023/08/10 09:06:15;;;;;;;6.07;2.95;;;;;;;21.55;89.42;65251.56;5051139;28;20708;-55
2023/08/10 09:08:41;;;;;;;3.42;3.13;;;;;;;21.75;84.29;65274.22;5051141;28;20710;-54
2023/08/10 09:11:08;;;;;;;5.47;3.20;;;;;;;20.88;87.88;65178.00;5050962;28;20683;-54
2023/08/10 09:13:34;;;;;;;5.10;3.55;;;;;;;20.89;95.08;65182.22;5050690;28;20267;-54
2023/08/10 09:16:09;;;;;;;3.13;2.83;;;;;;;21.20;92.56;65215.41;5049600;28;20300;-55
2023/08/10 09:18:38;;;;;;;7.63;4.18;;;;;;;21.06;87.92;65197.94;5051248;28;20216;-55
2023/08/10 09:21:15;;;;;;;3.63;2.80;;;;;;;21.34;87.29;65228.88;5049208;28;20292;-57
2023/08/10 09:23:47;;;;;;;12.73;3.90;;;;;;;21.65;89.67;65265.19;5050954;28;20239;-55
2023/08/10 09:26:16;;;;;;;10.57;4.60;;;;;;;21.49;85.40;65247.50;5050435;28;20766;-54
2023/08/10 09:28:42;;;;;;;6.72;3.88;;;;;;;21.50;84.84;65246.59;5050183;28;20213;-58
2023/08/10 09:31:10;;;;;;;4.13;2.72;;;;;;;21.57;89.17;65256.88;5048786;28;20626;-55
2023/08/10 09:33:37;;;;;;;3.42;2.97;;;;;;;21.53;90.27;65252.47;5050474;28;20242;-54
2023/08/10 09:36:08;;;;;;;8.63;4.15;;;;;;;21.65;90.50;65265.72;5050782;28;20227;-53
2023/08/10 09:38:34;;;;;;;6.00;3.35;;;;;;;21.55;86.61;65252.09;5050631;28;20667;-53
2023/08/10 09:41:10;;;;;;;5.15;3.15;;;;;;;21.51;85.04;65247.69;5050289;28;20704;-59
2023/08/10 09:43:40;;;;;;;8.75;4.75;;;;;;;21.52;86.35;65248.78;5050769;28;20205;-57
2023/08/10 09:46:07;;;;;;;7.07;4.07;;;;;;;21.28;85.06;65222.25;5048856;28;20237;-55
2023/08/10 09:48:37;;;;;;;6.53;4.20;;;;;;;21.57;85.82;65259.44;5049015;28;20296;-56
2023/08/10 09:51:08;;;;;;;21.55;7.50;;;;;;;21.93;87.14;65293.06;5049985;28;20210;-54
2023/08/10 09:53:34;;;;;;;3.65;3.33;;;;;;;21.84;85.43;65283.66;5050627;28;20308;-55
2023/08/10 09:56:01;;;;;;;4.57;2.65;;;;;;;22.07;82.59;65308.56;5050169;28;20201;-53
2023/08/10 09:58:27;;;;;;;6.30;2.78;;;;;;;21.68;81.90;65265.94;5050144;28;20202;-54
2023/08/10 10:00:53;;;;;;;2.95;2.75;;;;;;;21.61;83.29;65260.78;5050140;28;20208;-54
2023/08/10 10:03:20;;;;;;;3.90;3.08;;;;;;;21.67;87.09;65265.38;5050063;28;20193;-54
2023/08/10 10:05:51;;;;;;;3.45;2.75;;;;;;;21.75;85.89;65273.69;5049599;28;20227;-54
2023/08/10 10:08:17;;;;;;;4.28;3.13;;;;;;;21.83;83.51;65282.00;5065589;28;20181;-54
2023/08/10 10:10:45;;;;;;;4.22;3.45;;;;;;;21.84;79.77;65283.09;5049996;28;20293;-54
2023/08/10 10:13:16;;;;;;;4.03;2.60;;;;;;;21.48;81.15;65243.81;5050178;28;20358;-55
2023/08/10 10:15:43;;;;;;;3.03;2.80;;;;;;;21.33;83.75;65227.78;5050060;28;20632;-56
2023/08/10 10:18:10;;;;;;;5.18;2.85;;;;;;;21.39;81.14;65234.41;5049869;28;20209;-55
2023/08/10 10:20:39;;;;;;;4.35;2.60;;;;;;;21.34;86.64;65228.88;5049779;28;20254;-53
2023/08/10 10:23:12;;;;;;;4.22;2.42;;;;;;;21.22;80.69;65220.19;5047626;28;20296;-55
2023/08/10 10:25:38;;;;;;;3.30;2.97;;;;;;;20.96;79.11;65184.28;5048646;28;20636;-54
2023/08/10 10:28:13;;;;;;;3.83;2.67;;;;;;;20.98;82.77;65191.06;5048442;28;20316;-56
2023/08/10 10:30:56;;;;;;;3.35;2.47;;;;;;;21.11;87.96;65202.91;5051157;28;20239;-55
2023/08/10 10:33:23;;;;;;;5.43;2.47;;;;;;;21.53;85.58;65251.91;5068750;28;20699;-54
2023/08/10 10:36:08;;;;;;;4.05;2.90;;;;;;;22.00;78.09;65298.25;5053234;28;20197;-55
2023/08/10 10:38:34;;;;;;;3.75;2.97;;;;;;;21.95;78.63;65295.28;5053302;28;20312;-54
2023/08/10 10:41:10;;;;;;;4.00;2.58;;;;;;;22.22;81.05;65325.16;5053200;28;20669;-55
2023/08/10 10:43:36;;;;;;;3.55;2.72;;;;;;;22.30;79.93;65334.56;5053544;28;20211;-55
2023/08/10 10:46:01;;;;;;;7.13;2.97;;;;;;;22.32;79.03;65336.25;5052138;28;20299;-54
2023/08/10 10:48:35;;;;;;;6.25;2.63;;;;;;;22.53;80.44;65362.59;5053043;28;20209;-55
2023/08/10 10:51:04;;;;;;;4.85;2.20;;;;;;;22.84;79.97;65398.41;5051590;28;20245;-54
2023/08/10 10:53:32;;;;;;;4.45;2.20;;;;;;;22.88;77.15;65400.28;5053242;28;20202;-54
2023/08/10 10:55:58;;;;;;;2.15;1.75;;;;;;;22.98;76.39;65409.34;5052855;28;20289;-54
2023/08/10 10:58:31;;;;;;;1.67;1.58;;;;;;;22.98;78.81;65411.91;5051472;28;20683;-60
2023/08/10 11:00:56;;;;;;;2.08;1.80;;;;;;;22.90;79.53;65399.91;5051686;28;20251;-55
2023/08/10 11:03:26;;;;;;;3.60;1.88;;;;;;;22.92;77.71;65402.13;5052991;28;20213;-54
2023/08/10 11:05:51;;;;;;;2.63;1.50;;;;;;;22.94;77.16;65404.91;5062300;22;20436;-58
2023/08/10 11:08:17;;;;;;;3.95;3.42;;;;;;;22.86;75.68;65395.50;5031583;28;20700;-55
2023/08/10 11:10:44;;;;;;;4.55;2.00;;;;;;;22.86;72.29;65398.63;5032883;28;20206;-55
2023/08/10 11:13:10;;;;;;;3.35;1.80;;;;;;;22.82;74.33;65391.63;5032873;28;20162;-56
2023/08/10 11:15:39;;;;;;;1.98;1.50;;;;;;;22.80;73.46;65386.84;5032670;28;20230;-54
2023/08/10 11:18:12;;;;;;;3.90;2.60;;;;;;;22.91;77.82;65401.00;5015002;28;20371;-55
2023/08/10 11:20:45;;;;;;;1.60;1.17;;;;;;;23.01;75.30;65412.66;5032961;28;20205;-55
2023/08/10 11:23:12;;;;;;;1.75;1.40;;;;;;;22.86;69.55;65395.50;5031428;28;20259;-55
2023/08/10 11:25:45;;;;;;;1.58;1.40;;;;;;;22.79;71.37;65390.84;5014685;28;20288;-54
2023/08/10 11:28:11;;;;;;;1.50;1.40;;;;;;;22.93;71.29;65403.78;5033069;28;20255;-57